Time;durP1;ratioP1;P1;durP2;ratioP2;P2;SDS_P1;SDS_P2;PMS_P1;PMS_P2;Temp;Humidity;BMP_temperature;BMP_pressure;BME280_temperature;BME280_humidity;BME280_pressure;Samples;Min_cycle;Max_cycle;Signal;HPM_P1;HPM_P2
2021/04/19 00:02:01;;;;;;;1.90;1.80;;;;;;;7.06;89.13;99107.11;1714387;83;21175;-59
2021/04/19 00:04:30;;;;;;;1.60;1.50;;;;;;;7.07;89.23;99111.39;1713656;82;21212;-57
2021/04/19 00:06:59;;;;;;;2.10;1.90;;;;;;;7.08;89.42;99110.42;1741841;82;21275;-58
2021/04/19 00:09:27;;;;;;;2.05;1.67;;;;;;;7.07;89.57;99108.75;1739466;82;21547;-57
2021/04/19 00:11:54;;;;;;;2.50;1.70;;;;;;;7.08;89.77;99111.74;1729801;81;21178;-58
2021/04/19 00:14:22;;;;;;;1.87;1.77;;;;;;;7.08;89.96;99109.09;1747218;80;21160;-57
2021/04/19 00:16:50;;;;;;;3.27;2.00;;;;;;;7.10;90.05;99111.09;1750329;80;21131;-59
2021/04/19 00:19:19;;;;;;;1.90;1.65;;;;;;;7.13;90.11;99109.94;1712390;83;21447;-57
2021/04/19 00:21:46;;;;;;;2.25;1.70;;;;;;;7.15;90.20;99109.28;1741973;82;21112;-57
2021/04/19 00:24:14;;;;;;;2.27;1.70;;;;;;;7.15;90.27;99108.80;1741724;82;21139;-58
2021/04/19 00:26:42;;;;;;;1.70;1.60;;;;;;;7.17;90.30;99108.66;1738794;82;21126;-57
2021/04/19 00:29:10;;;;;;;1.60;1.50;;;;;;;7.17;90.42;99108.14;1741444;82;21127;-57
2021/04/19 00:31:37;;;;;;;2.10;1.80;;;;;;;7.18;90.43;99111.13;1752333;80;21386;-57
2021/04/19 00:34:06;;;;;;;2.85;1.87;;;;;;;7.19;90.53;99107.52;1745638;81;21202;-57
2021/04/19 00:36:35;;;;;;;2.72;1.85;;;;;;;7.19;90.59;99104.87;1744675;81;21005;-59
2021/04/19 00:39:05;;;;;;;1.87;1.65;;;;;;;7.19;90.67;99110.16;1722299;83;21145;-57
2021/04/19 00:41:33;;;;;;;1.50;1.40;;;;;;;7.16;90.80;99099.88;1734053;82;21167;-57
2021/04/19 00:44:01;;;;;;;2.30;1.82;;;;;;;7.16;90.95;99097.23;1710897;82;21375;-57
2021/04/19 00:46:28;;;;;;;2.17;1.98;;;;;;;7.16;91.04;99103.86;1690239;83;21158;-58
2021/04/19 00:48:56;;;;;;;2.77;1.85;;;;;;;7.17;91.11;99102.05;1719179;82;21126;-58
2021/04/19 00:51:24;;;;;;;1.77;1.57;;;;;;;7.16;91.19;99098.56;1687905;83;21162;-57
2021/04/19 00:53:52;;;;;;;1.90;1.70;;;;;;;7.17;91.26;99106.02;1737682;82;21140;-59
2021/04/19 00:56:21;;;;;;;1.77;1.67;;;;;;;7.16;91.27;99105.17;1741017;80;21249;-58
2021/04/19 00:58:50;;;;;;;1.60;1.50;;;;;;;7.17;91.24;99105.49;1727445;82;21618;-58
2021/04/19 01:01:18;;;;;;;2.22;2.02;;;;;;;7.18;91.24;99106.33;1736948;81;21245;-59
2021/04/19 01:03:46;;;;;;;2.58;2.00;;;;;;;7.16;91.19;99104.34;1735761;81;21070;-58
2021/04/19 01:06:15;;;;;;;1.95;1.77;;;;;;;7.16;91.16;99103.86;1734871;81;21199;-60
2021/04/19 01:08:43;;;;;;;2.15;1.92;;;;;;;7.15;91.15;99102.18;1735946;82;21335;-59
2021/04/19 01:11:11;;;;;;;2.30;1.98;;;;;;;7.12;91.16;99105.62;1736077;81;21156;-56
2021/04/19 01:13:38;;;;;;;2.47;2.20;;;;;;;7.10;91.27;99108.92;1735794;81;21658;-58
2021/04/19 01:16:06;;;;;;;2.08;1.98;;;;;;;7.07;91.26;99102.14;1735682;82;21128;-57
2021/04/19 01:18:36;;;;;;;2.60;2.00;;;;;;;7.07;91.28;99102.14;1735729;82;21111;-59
2021/04/19 01:21:06;;;;;;;2.60;2.40;;;;;;;7.07;91.33;99104.78;1736631;81;22145;-58
2021/04/19 01:23:34;;;;;;;2.80;2.60;;;;;;;7.07;91.33;99101.30;1735597;82;21128;-57
2021/04/19 01:26:02;;;;;;;3.72;2.50;;;;;;;7.07;91.37;99103.95;1735695;82;21049;-57
2021/04/19 01:28:33;;;;;;;2.60;2.17;;;;;;;7.08;91.35;99102.48;1713352;82;21053;-57
2021/04/19 01:31:02;;;;;;;2.65;2.45;;;;;;;7.09;91.35;99105.45;1736254;81;22271;-57
2021/04/19 01:33:32;;;;;;;2.60;2.40;;;;;;;7.11;91.27;99109.28;1740430;81;22220;-57
2021/04/19 01:36:01;;;;;;;3.72;1.90;;;;;;;7.10;91.19;99113.73;1735648;82;21152;-57
2021/04/19 01:38:30;;;;;;;2.45;2.22;;;;;;;7.13;91.18;99116.55;1735764;81;21144;-55
2021/04/19 01:40:58;;;;;;;2.85;2.17;;;;;;;7.14;91.12;99117.73;1736550;82;21218;-57
2021/04/19 01:43:26;;;;;;;2.65;2.45;;;;;;;7.15;91.06;99113.25;1740794;82;21121;-56
2021/04/19 01:45:56;;;;;;;2.05;1.95;;;;;;;7.13;90.82;99113.42;1735099;82;21203;-57
2021/04/19 01:48:24;;;;;;;2.60;2.40;;;;;;;7.10;90.82;99120.34;1745571;81;22295;-58
2021/04/19 01:50:53;;;;;;;2.27;2.08;;;;;;;7.05;90.63;99114.70;1744838;80;21202;-59
2021/04/19 01:53:21;;;;;;;2.77;2.37;;;;;;;7.01;90.58;99117.33;1772832;80;21100;-56
2021/04/19 01:55:49;;;;;;;2.45;2.25;;;;;;;6.97;90.55;99119.09;1763307;80;21098;-57
2021/04/19 01:58:22;;;;;;;3.22;2.12;;;;;;;6.91;90.64;99118.42;1755412;80;21337;-57
2021/04/19 02:00:59;;;;;;;2.58;2.37;;;;;;;6.87;90.77;99122.34;1755770;80;21031;-57
2021/04/19 02:03:54;;;;;;;2.50;2.30;;;;;;;6.83;90.84;99125.78;1766914;80;21606;-56
2021/04/19 02:06:58;;;;;;;2.30;2.10;;;;;;;6.78;90.93;99124.09;1746472;80;21064;-58
2021/04/19 02:09:30;;;;;;;2.10;1.90;;;;;;;6.70;91.11;99119.58;1759067;80;21222;-56
2021/04/19 02:12:23;;;;;;;2.37;2.17;;;;;;;6.65;91.30;99117.06;1725517;82;21389;-58
2021/04/19 02:15:10;;;;;;;2.20;2.00;;;;;;;6.59;91.58;99119.02;1699785;83;21069;-59
2021/04/19 02:18:11;;;;;;;2.67;2.08;;;;;;;6.54;91.79;99112.05;1714781;82;21210;-57
2021/04/19 02:20:52;;;;;;;2.40;2.20;;;;;;;6.53;91.95;99111.69;1726717;82;21163;-57
2021/04/19 02:23:36;;;;;;;2.05;1.90;;;;;;;6.49;92.03;99108.52;1733778;82;21022;-61
2021/04/19 02:26:16;;;;;;;2.85;2.15;;;;;;;6.46;92.18;99114.13;1695623;83;22255;-57
2021/04/19 02:28:52;;;;;;;3.27;2.20;;;;;;;6.44;92.28;99111.30;1729775;82;20937;-56
2021/04/19 02:31:21;;;;;;;1.93;1.67;;;;;;;6.42;92.36;99110.13;1737769;82;21033;-58
2021/04/19 02:33:50;;;;;;;2.20;2.00;;;;;;;6.41;92.45;99110.28;1726801;82;21223;-58
2021/04/19 02:36:19;;;;;;;2.10;2.00;;;;;;;6.39;92.45;99110.42;1723986;82;21038;-56
2021/04/19 02:38:52;;;;;;;2.77;2.20;;;;;;;6.39;92.46;99110.42;1728765;82;21382;-56
2021/04/19 02:41:21;;;;;;;2.95;2.15;;;;;;;6.40;92.43;99115.22;1724812;82;21043;-57
2021/04/19 02:43:49;;;;;;;2.33;2.12;;;;;;;6.39;92.38;99116.22;1729590;82;21061;-57
2021/04/19 02:46:19;;;;;;;2.27;2.08;;;;;;;6.41;92.44;99112.93;1725826;82;21048;-58
2021/04/19 02:48:47;;;;;;;2.22;2.02;;;;;;;6.39;92.46;99111.73;1726528;82;21133;-57
2021/04/19 02:51:17;;;;;;;2.67;2.47;;;;;;;6.39;92.47;99110.42;1685566;84;21380;-57
2021/04/19 02:53:45;;;;;;;2.22;2.02;;;;;;;6.38;92.47;99112.74;1682484;84;21194;-58
2021/04/19 02:56:12;;;;;;;2.70;2.50;;;;;;;6.40;92.52;99117.37;1714396;83;21007;-56
2021/04/19 02:58:48;;;;;;;2.37;2.17;;;;;;;6.41;92.39;99115.57;1714371;83;21177;-56
2021/04/19 03:01:26;;;;;;;2.60;2.15;;;;;;;6.41;92.38;99119.53;1716127;83;21703;-57
2021/04/19 03:04:02;;;;;;;2.15;2.05;;;;;;;6.43;92.33;99116.23;1711810;83;21269;-56
2021/04/19 03:06:30;;;;;;;2.30;2.10;;;;;;;6.43;92.25;99118.88;1693535;84;21026;-57
2021/04/19 03:09:01;;;;;;;2.67;2.47;;;;;;;6.44;92.25;99122.68;1698837;84;21191;-56
2021/04/19 03:11:35;;;;;;;2.45;2.25;;;;;;;6.44;92.17;99123.20;1729996;82;21136;-57
2021/04/19 03:14:05;;;;;;;2.05;1.85;;;;;;;6.43;92.14;99124.17;1720245;82;21144;-57
2021/04/19 03:16:45;;;;;;;1.60;1.50;;;;;;;6.42;92.11;99122.50;1702317;84;23070;-57
2021/04/19 03:19:15;;;;;;;2.30;2.02;;;;;;;6.36;92.07;99127.09;1689300;84;20952;-58
2021/04/19 03:21:44;;;;;;;2.75;2.25;;;;;;;6.30;92.21;99127.20;1723070;82;21056;-57
2021/04/19 03:24:13;;;;;;;2.67;2.10;;;;;;;6.25;92.41;99128.63;1681100;84;21150;-57
2021/04/19 03:26:52;;;;;;;3.17;2.47;;;;;;;6.18;92.63;99129.23;1723870;82;21161;-57
2021/04/19 03:29:21;;;;;;;2.40;2.20;;;;;;;6.14;92.78;99129.20;1663791;85;21376;-58
2021/04/19 03:31:56;;;;;;;2.58;2.27;;;;;;;6.09;93.03;99130.63;1698962;82;21109;-58
2021/04/19 03:34:27;;;;;;;3.30;2.22;;;;;;;6.08;93.14;99136.88;1700357;84;21526;-57
2021/04/19 03:37:08;;;;;;;2.70;2.50;;;;;;;6.05;93.27;99130.09;1725180;82;21177;-61
2021/04/19 03:39:36;;;;;;;2.55;2.35;;;;;;;6.04;93.31;99135.53;1680972;84;21222;-59
2021/04/19 03:42:05;;;;;;;2.80;2.60;;;;;;;6.06;93.31;99136.20;1687233;84;21554;-58
2021/04/19 03:44:36;;;;;;;3.35;3.08;;;;;;;6.03;93.28;99139.98;1694821;84;21164;-57
2021/04/19 03:47:04;;;;;;;3.05;2.75;;;;;;;6.03;93.27;99136.02;1683082;84;21159;-58
2021/04/19 03:49:38;;;;;;;6.65;3.37;;;;;;;6.03;93.27;99138.66;1701379;82;21147;-58
2021/04/19 03:52:12;;;;;;;2.95;2.72;;;;;;;6.08;93.25;99136.88;1768888;80;21180;-58
2021/04/19 03:54:44;;;;;;;3.55;3.20;;;;;;;6.14;93.11;99146.38;1755123;81;21442;-58
2021/04/19 03:57:16;;;;;;;2.80;2.60;;;;;;;6.22;92.90;99145.61;1751123;81;21130;-58
2021/04/19 03:59:45;;;;;;;2.77;2.50;;;;;;;6.33;92.62;99154.64;1755208;80;21111;-57
2021/04/19 04:02:15;;;;;;;3.02;2.72;;;;;;;6.42;92.22;99151.08;1743712;82;21124;-57
2021/04/19 04:05:00;;;;;;;4.35;2.72;;;;;;;6.50;91.79;99146.34;1753138;81;21201;-57
2021/04/19 04:07:29;;;;;;;2.40;2.20;;;;;;;6.56;91.24;99148.39;1741888;82;22189;-57
2021/04/19 04:09:58;;;;;;;2.60;2.40;;;;;;;6.60;90.90;99149.73;1707052;82;21179;-57
2021/04/19 04:12:25;;;;;;;2.83;2.62;;;;;;;6.62;90.65;99151.23;1754648;80;21140;-58
2021/04/19 04:14:56;;;;;;;2.60;2.40;;;;;;;6.66;90.41;99153.93;1737235;82;21228;-59
2021/04/19 04:17:29;;;;;;;2.85;2.58;;;;;;;6.73;90.28;99151.48;1741083;82;21164;-56
2021/04/19 04:20:13;;;;;;;2.70;2.50;;;;;;;6.79;89.82;99153.04;1766816;80;21214;-56
2021/04/19 04:22:42;;;;;;;2.90;2.60;;;;;;;6.82;89.47;99147.94;1719538;82;21176;-57
2021/04/19 04:25:13;;;;;;;2.40;2.20;;;;;;;6.84;89.26;99157.38;1717268;82;21021;-58
2021/04/19 04:27:41;;;;;;;3.10;2.80;;;;;;;6.87;89.02;99152.27;1722477;82;21242;-56
2021/04/19 04:30:11;;;;;;;2.60;2.40;;;;;;;6.88;88.74;99149.14;1777842;80;21160;-56
2021/04/19 04:32:43;;;;;;;2.87;2.67;;;;;;;6.89;88.72;99148.97;1750464;80;22253;-57
2021/04/19 04:35:14;;;;;;;2.72;2.52;;;;;;;6.91;88.62;99144.86;1722467;81;21158;-56
2021/04/19 04:37:43;;;;;;;6.08;3.10;;;;;;;6.95;88.59;99148.84;1705808;83;21573;-58
2021/04/19 04:40:14;;;;;;;3.30;3.10;;;;;;;7.01;88.34;99153.03;1774585;80;21094;-57
2021/04/19 04:42:43;;;;;;;2.77;2.58;;;;;;;7.06;88.12;99152.08;1726073;81;21091;-58
2021/04/19 04:45:13;;;;;;;3.62;3.05;;;;;;;7.11;87.91;99155.56;1733913;80;22419;-57
2021/04/19 04:47:45;;;;;;;4.83;3.33;;;;;;;7.15;87.70;99159.06;1751854;81;21109;-59
2021/04/19 04:50:19;;;;;;;3.67;3.20;;;;;;;7.18;87.45;99161.40;1695928;82;21168;-57
2021/04/19 04:52:55;;;;;;;3.30;3.00;;;;;;;7.18;87.28;99157.91;1689882;84;21199;-57
2021/04/19 04:55:23;;;;;;;3.33;3.02;;;;;;;7.17;87.45;99162.37;1683902;84;21208;-59
2021/04/19 04:57:51;;;;;;;4.45;3.62;;;;;;;7.21;87.51;99153.16;1715992;82;21214;-57
2021/04/19 05:00:20;;;;;;;3.87;3.50;;;;;;;7.26;87.45;99149.54;1691052;84;21203;-56
2021/04/19 05:02:51;;;;;;;3.92;3.62;;;;;;;7.35;87.45;99151.75;1685935;84;21132;-57
2021/04/19 05:05:19;;;;;;;6.78;4.00;;;;;;;7.45;87.22;99149.32;1692576;84;21235;-57
2021/04/19 05:07:46;;;;;;;5.20;4.05;;;;;;;7.55;86.82;99153.64;1694389;84;21097;-56
2021/04/19 05:10:14;;;;;;;4.17;3.77;;;;;;;7.66;86.49;99152.88;1684641;84;21365;-56
2021/04/19 05:12:42;;;;;;;3.92;3.62;;;;;;;7.75;86.14;99154.55;1697531;83;21132;-55
2021/04/19 05:15:14;;;;;;;4.05;3.75;;;;;;;7.85;85.91;99157.89;1675759;85;21213;-58
2021/04/19 05:17:45;;;;;;;4.00;3.60;;;;;;;7.94;85.31;99151.64;1663946;85;21596;-57
2021/04/19 05:20:15;;;;;;;4.25;3.90;;;;;;;8.00;85.00;99153.63;1670141;85;21209;-56
2021/04/19 05:22:43;;;;;;;7.30;4.00;;;;;;;8.12;84.94;99155.49;1660233;85;21214;-56
2021/04/19 05:25:12;;;;;;;4.12;3.72;;;;;;;8.27;84.54;99154.37;1685608;84;21077;-56
2021/04/19 05:27:39;;;;;;;5.15;3.67;;;;;;;8.41;84.06;99155.91;1686260;84;21044;-57
2021/04/19 05:30:09;;;;;;;5.00;4.05;;;;;;;8.60;83.78;99146.28;1685871;84;21579;-58
2021/04/19 05:32:36;;;;;;;4.28;3.85;;;;;;;8.87;83.08;99148.27;1685336;84;21166;-58
2021/04/19 05:35:08;;;;;;;4.50;4.08;;;;;;;9.12;81.84;99145.44;1684895;84;21313;-57
2021/04/19 05:37:35;;;;;;;5.12;4.62;;;;;;;9.30;80.95;99143.40;1684307;84;21155;-56
2021/04/19 05:40:06;;;;;;;4.15;3.75;;;;;;;9.52;80.03;99140.98;1685911;84;21092;-56
2021/04/19 05:42:34;;;;;;;5.47;4.17;;;;;;;9.68;78.97;99143.09;1685346;84;21228;-56
2021/04/19 05:45:03;;;;;;;5.83;5.12;;;;;;;9.85;78.32;99137.21;1662118;84;21159;-56
2021/04/19 05:47:31;;;;;;;4.85;4.40;;;;;;;9.95;77.49;99141.80;1671228;84;21490;-57
2021/04/19 05:49:59;;;;;;;5.15;4.70;;;;;;;10.06;76.91;99135.27;1707640;82;21167;-56
2021/04/19 05:52:27;;;;;;;4.92;4.50;;;;;;;10.23;76.35;99136.84;1719397;82;21479;-56
2021/04/19 05:54:55;;;;;;;5.40;4.90;;;;;;;10.47;75.64;99136.68;1718497;82;21005;-57
2021/04/19 05:57:43;;;;;;;4.85;4.45;;;;;;;10.74;74.73;99129.45;1718656;82;21152;-58
2021/04/19 06:00:25;;;;;;;5.28;4.85;;;;;;;11.08;73.60;99135.13;1703671;82;21383;-56
2021/04/19 06:03:16;;;;;;;5.92;5.05;;;;;;;11.49;72.05;99129.38;1720111;82;21187;-55
2021/04/19 06:06:19;;;;;;;5.90;5.00;;;;;;;11.92;70.65;99131.19;1722961;82;20986;-56
2021/04/19 06:09:03;;;;;;;4.95;4.55;;;;;;;12.34;68.80;99129.92;1720117;82;20930;-57
2021/04/19 06:11:50;;;;;;;5.22;4.78;;;;;;;12.85;67.48;99130.58;1717513;82;20965;-56
2021/04/19 06:14:35;;;;;;;5.12;4.72;;;;;;;13.40;65.52;99125.77;1806360;78;22208;-58
2021/04/19 06:17:03;;;;;;;6.17;5.08;;;;;;;13.72;63.76;99134.16;1776919;79;21542;-57
2021/04/19 06:19:33;;;;;;;5.75;5.20;;;;;;;14.04;62.24;99126.79;1777660;79;21373;-57
2021/04/19 06:22:00;;;;;;;7.70;4.97;;;;;;;14.34;61.43;99126.79;1775303;79;20977;-57
2021/04/19 06:24:28;;;;;;;7.03;4.90;;;;;;;14.66;60.42;99126.03;1788387;79;20914;-58
2021/04/19 06:26:57;;;;;;;5.97;5.47;;;;;;;14.87;59.41;99120.16;1780421;79;20974;-57
2021/04/19 06:29:28;;;;;;;7.85;5.70;;;;;;;15.11;58.08;99124.89;1787794;79;21545;-56
2021/04/19 06:31:58;;;;;;;6.20;5.70;;;;;;;15.23;57.94;99129.41;1779492;79;21528;-58
2021/04/19 06:34:26;;;;;;;6.90;6.30;;;;;;;15.44;56.97;99122.98;1778696;79;21001;-59
2021/04/19 06:36:54;;;;;;;8.00;5.83;;;;;;;15.69;56.00;99122.64;1777803;79;20997;-58
2021/04/19 06:39:22;;;;;;;5.85;5.30;;;;;;;15.84;54.58;99123.20;1785794;77;20985;-58
2021/04/19 06:41:49;;;;;;;6.33;5.28;;;;;;;15.87;54.48;99124.64;1777176;79;21060;-58
2021/04/19 06:44:17;;;;;;;6.08;5.50;;;;;;;16.01;52.35;99120.33;1776669;79;21338;-57
2021/04/19 06:46:45;;;;;;;6.60;6.03;;;;;;;16.03;52.14;99123.62;1793685;79;21183;-58
2021/04/19 06:49:14;;;;;;;7.87;6.60;;;;;;;16.04;52.40;99123.11;1782547;79;21104;-58
2021/04/19 06:51:41;;;;;;;7.12;6.42;;;;;;;16.12;51.76;99124.72;1793667;78;21555;-59
2021/04/19 06:54:12;;;;;;;7.37;6.83;;;;;;;16.17;50.80;99128.92;1807145;77;21173;-57
2021/04/19 06:56:42;;;;;;;7.47;6.78;;;;;;;16.17;50.72;99127.58;1770154;79;21190;-57
2021/04/19 06:59:14;;;;;;;6.20;5.70;;;;;;;16.14;51.16;99127.48;1778549;79;21040;-59
2021/04/19 07:01:43;;;;;;;6.62;6.03;;;;;;;16.11;49.22;99129.28;1793658;79;21088;-58
2021/04/19 07:04:13;;;;;;;6.97;5.33;;;;;;;16.18;49.51;99135.44;1781086;79;21589;-59
2021/04/19 07:06:41;;;;;;;10.43;5.55;;;;;;;16.33;48.40;99143.19;1778666;79;21028;-58
2021/04/19 07:09:27;;;;;;;5.95;5.45;;;;;;;16.42;46.96;99145.94;1785099;77;21190;-56
2021/04/19 07:11:58;;;;;;;;;;;;;;;16.40;47.51;99128.69;1799334;79;21009;-58
2021/04/19 07:14:30;;;;;;;5.08;4.20;;;;;;;16.43;46.03;99134.97;1773133;79;20477;-59
2021/04/19 07:16:57;;;;;;;4.60;4.20;;;;;;;16.41;45.58;99134.38;1773224;79;20922;-58
2021/04/19 07:19:25;;;;;;;3.95;3.65;;;;;;;16.42;45.63;99130.66;1772688;79;21008;-58
2021/04/19 07:21:53;;;;;;;3.92;3.50;;;;;;;16.46;45.01;99134.55;1776209;79;21356;-58
2021/04/19 07:24:21;;;;;;;4.53;4.12;;;;;;;16.57;45.65;99134.41;1770560;79;21049;-66
2021/04/19 07:26:52;;;;;;;5.70;4.08;;;;;;;16.69;45.66;99125.94;1773393;79;21069;-56
2021/04/19 07:29:19;;;;;;;6.05;4.08;;;;;;;16.79;46.35;99127.62;1773898;79;20918;-59
2021/04/19 07:31:55;;;;;;;6.15;3.55;;;;;;;16.86;46.04;99131.10;1774645;79;21101;-59
2021/04/19 07:34:29;;;;;;;3.50;3.22;;;;;;;16.82;45.72;99121.81;1771885;79;21364;-60
2021/04/19 07:37:04;;;;;;;3.55;3.00;;;;;;;16.73;45.36;99119.63;1776184;78;21097;-61
2021/04/19 07:39:36;;;;;;;4.53;3.70;;;;;;;16.75;45.62;99127.77;1771281;79;21109;-63
2021/04/19 07:42:07;;;;;;;4.00;3.70;;;;;;;16.75;45.49;99119.71;1783795;79;21128;-60
2021/04/19 07:44:52;;;;;;;3.98;3.67;;;;;;;16.73;45.31;99124.48;1774075;79;21207;-60
2021/04/19 07:47:31;;;;;;;4.30;3.70;;;;;;;16.73;45.08;99113.73;1772946;78;21247;-59
2021/04/19 07:50:07;;;;;;;4.83;3.17;;;;;;;16.65;45.66;99111.32;1780803;79;21184;-61
2021/04/19 07:52:59;;;;;;;;;;;;;;;16.54;45.86;99121.41;1780487;79;21073;-61
2021/04/19 07:55:36;;;;;;;3.92;3.62;;;;;;;16.42;45.50;99115.89;1790182;79;20217;-61
2021/04/19 07:58:08;;;;;;;3.67;3.37;;;;;;;16.50;44.89;99108.89;1772111;79;21192;-60
2021/04/19 08:00:39;;;;;;;3.87;3.58;;;;;;;16.68;44.91;99109.55;1790930;79;21195;-60
2021/04/19 08:03:12;;;;;;;4.92;3.47;;;;;;;16.72;43.83;99106.71;1795423;79;21078;-58
2021/04/19 08:05:49;;;;;;;3.67;3.37;;;;;;;16.66;43.79;99112.95;1771944;79;21105;-58
2021/04/19 08:08:30;;;;;;;3.87;3.42;;;;;;;16.56;44.37;99122.84;1771896;79;20922;-60
2021/04/19 08:11:09;;;;;;;5.03;3.85;;;;;;;16.51;44.65;99115.09;1772065;79;21192;-59
2021/04/19 08:13:37;;;;;;;4.55;3.50;;;;;;;16.52;44.08;99115.41;1763003;79;22507;-59
2021/04/19 08:16:24;;;;;;;4.50;4.17;;;;;;;16.33;43.62;99105.61;1747098;79;21029;-59
2021/04/19 08:19:04;;;;;;;6.03;3.47;;;;;;;16.18;43.81;99106.42;1757691;79;21009;-60
2021/04/19 08:21:33;;;;;;;3.75;3.35;;;;;;;16.22;44.25;99105.77;1747097;79;21021;-60
2021/04/19 08:24:16;;;;;;;3.80;3.50;;;;;;;16.36;44.43;99101.16;1768770;80;21004;-59
2021/04/19 08:26:55;;;;;;;3.98;3.00;;;;;;;16.46;43.21;99102.33;1753554;79;21618;-58
2021/04/19 08:29:45;;;;;;;2.95;2.75;;;;;;;16.57;43.55;99104.87;1774939;80;21600;-59
2021/04/19 08:32:19;;;;;;;3.33;3.02;;;;;;;16.86;42.74;99098.03;1759731;79;21016;-59
2021/04/19 08:34:49;;;;;;;3.35;3.10;;;;;;;17.06;41.94;99102.70;1760091;81;21492;-58
2021/04/19 08:37:20;;;;;;;3.40;3.10;;;;;;;17.23;41.34;99099.77;1759887;79;20886;-62
2021/04/19 08:39:47;;;;;;;3.22;3.02;;;;;;;17.46;40.40;99097.77;1747265;79;22258;-60
2021/04/19 08:42:17;;;;;;;4.50;2.70;;;;;;;17.89;41.22;99093.13;1773341;79;20907;-60
2021/04/19 08:44:45;;;;;;;2.90;2.62;;;;;;;18.27;40.11;99099.58;1778792;79;21559;-60
2021/04/19 08:47:17;;;;;;;5.58;3.17;;;;;;;18.28;39.42;99091.26;1748989;79;21100;-59
2021/04/19 08:49:46;;;;;;;3.40;3.10;;;;;;;18.07;39.53;99095.00;1747227;79;21095;-60
2021/04/19 08:52:15;;;;;;;3.10;2.80;;;;;;;18.15;39.11;99090.61;1755046;79;22118;-61
2021/04/19 08:54:44;;;;;;;3.17;2.92;;;;;;;18.23;38.36;99088.95;1760511;79;21546;-58
2021/04/19 08:57:12;;;;;;;4.12;3.15;;;;;;;18.35;39.47;99079.86;1747068;79;21005;-59
2021/04/19 08:59:43;;;;;;;8.60;3.17;;;;;;;18.56;39.28;99086.65;1747053;79;21001;-59
2021/04/19 09:02:13;;;;;;;3.42;2.85;;;;;;;18.64;39.01;99082.25;1747151;79;21143;-59
2021/04/19 09:04:41;;;;;;;3.05;2.85;;;;;;;18.77;38.51;99079.34;1780971;79;22272;-59
2021/04/19 09:07:09;;;;;;;6.05;3.67;;;;;;;18.64;37.38;99080.10;1747060;79;21157;-59
2021/04/19 09:09:43;;;;;;;2.92;2.70;;;;;;;18.25;37.62;99089.56;1765762;79;21053;-59
2021/04/19 09:12:16;;;;;;;3.27;2.98;;;;;;;17.94;37.25;99080.37;1772432;79;20973;-59
2021/04/19 09:14:43;;;;;;;3.60;3.30;;;;;;;17.97;39.06;99086.09;1780924;79;21110;-59
2021/04/19 09:17:24;;;;;;;7.22;2.98;;;;;;;18.13;39.22;99089.52;1768172;80;21352;-59
2021/04/19 09:19:59;;;;;;;2.80;2.60;;;;;;;18.22;38.12;99088.16;1754795;79;21056;-59
2021/04/19 09:22:26;;;;;;;6.17;2.65;;;;;;;18.13;37.82;99080.09;1747206;79;20929;-60
2021/04/19 09:25:13;;;;;;;2.87;2.58;;;;;;;17.93;37.57;99080.89;1786563;79;21211;-59
2021/04/19 09:27:49;;;;;;;2.95;2.65;;;;;;;17.97;37.30;99075.85;1796363;79;21023;-60
2021/04/19 09:30:27;;;;;;;3.17;2.92;;;;;;;18.15;37.83;99071.77;1784266;79;21274;-59
2021/04/19 09:33:06;;;;;;;2.77;2.52;;;;;;;18.34;38.02;99076.06;1747179;79;21130;-60
2021/04/19 09:35:48;;;;;;;3.60;2.58;;;;;;;18.40;37.06;99070.59;1764005;79;21004;-59
2021/04/19 09:38:51;;;;;;;2.90;2.70;;;;;;;18.25;36.39;99073.41;1747259;79;20933;-60
2021/04/19 09:41:21;;;;;;;4.17;3.02;;;;;;;18.07;37.10;99072.12;1774714;79;20920;-60
2021/04/19 09:43:56;;;;;;;3.67;2.90;;;;;;;17.96;38.69;99066.16;1761335;79;21198;-59
2021/04/19 09:46:31;;;;;;;3.08;2.80;;;;;;;17.96;38.49;99063.46;1768161;79;21013;-59
2021/04/19 09:49:03;;;;;;;2.98;2.77;;;;;;;17.99;38.03;99061.13;1747239;79;21066;-59
2021/04/19 09:51:40;;;;;;;4.83;2.45;;;;;;;17.92;37.91;99067.64;1775706;79;21128;-60
2021/04/19 09:54:10;;;;;;;;;;;;;;;17.79;37.86;99061.39;1775891;79;20879;-60
2021/04/19 09:56:47;;;;;;;2.67;2.47;;;;;;;17.97;37.50;99055.15;1776823;80;22159;-59
2021/04/19 10:02:02;;;;;;;3.70;2.80;;;;;;;18.39;37.00;99060.03;1804406;78;28946;-59
2021/04/19 10:04:30;;;;;;;2.92;2.30;;;;;;;18.52;37.80;99059.03;1763727;79;20924;-59
2021/04/19 10:07:00;;;;;;;3.62;2.37;;;;;;;18.72;35.96;99061.70;1768932;79;21199;-60
2021/04/19 10:09:30;;;;;;;3.42;2.60;;;;;;;18.72;36.15;99059.56;1758131;79;21636;-59
2021/04/19 10:12:02;;;;;;;2.20;2.10;;;;;;;18.79;35.38;99060.27;1758271;79;21573;-59
2021/04/19 10:14:34;;;;;;;2.55;2.35;;;;;;;18.81;35.19;99055.45;1788422;79;20932;-59
2021/04/19 10:17:18;;;;;;;2.83;2.62;;;;;;;18.79;34.94;99062.44;1774439;79;21023;-59
2021/04/19 10:19:48;;;;;;;2.60;2.40;;;;;;;18.72;35.62;99052.27;1766393;79;21004;-60
2021/04/19 10:22:17;;;;;;;2.52;2.33;;;;;;;18.62;35.53;99053.89;1776221;77;21003;-59
2021/04/19 10:24:53;;;;;;;3.75;2.10;;;;;;;18.54;35.04;99051.57;1804818;77;20922;-61
2021/04/19 10:27:26;;;;;;;2.25;2.08;;;;;;;18.32;35.36;99053.94;1783462;78;21543;-61
2021/04/19 10:29:55;;;;;;;5.05;2.50;;;;;;;18.16;35.57;99056.75;1804588;77;21124;-60
2021/04/19 10:32:30;;;;;;;2.40;2.15;;;;;;;17.97;35.16;99052.46;1782579;77;21358;-60
2021/04/19 10:34:58;;;;;;;2.60;2.40;;;;;;;17.63;36.19;99051.77;1778853;79;21416;-60
2021/04/19 10:37:26;;;;;;;2.62;2.42;;;;;;;17.36;36.90;99053.92;1781880;79;21314;-60
2021/04/19 10:39:54;;;;;;;2.27;2.08;;;;;;;17.17;37.44;99046.38;1780284;77;20993;-60
2021/04/19 10:42:27;;;;;;;2.50;2.30;;;;;;;17.09;38.27;99051.20;1776801;79;21120;-60
2021/04/19 10:44:57;;;;;;;2.17;2.00;;;;;;;17.06;37.82;99043.06;1778616;79;21107;-60
2021/04/19 10:47:28;;;;;;;1.77;1.67;;;;;;;17.07;37.94;99054.13;1779048;79;21088;-61
2021/04/19 10:49:56;;;;;;;2.45;2.10;;;;;;;17.10;37.47;99041.56;1777415;79;21003;-61
2021/04/19 10:52:25;;;;;;;3.37;2.10;;;;;;;17.08;37.69;99050.89;1776693;79;21051;-61
2021/04/19 10:54:54;;;;;;;3.08;2.00;;;;;;;16.94;38.50;99050.23;1780976;77;21013;-59
2021/04/19 10:57:27;;;;;;;2.83;2.62;;;;;;;16.69;39.17;99048.06;1777843;79;21195;-59
2021/04/19 10:59:56;;;;;;;2.60;2.30;;;;;;;16.48;39.57;99046.55;1776664;79;21167;-60
2021/04/19 11:02:28;;;;;;;4.05;2.50;;;;;;;16.27;39.79;99052.27;1765973;79;20977;-60
2021/04/19 11:04:57;;;;;;;5.47;2.60;;;;;;;16.08;39.75;99060.74;1780062;79;20997;-62
2021/04/19 11:10:13;;;;;;;1.80;1.70;;;;;;;15.67;39.99;99049.61;1827911;78;22788;-61
2021/04/19 11:12:42;;;;;;;2.75;2.17;;;;;;;15.44;40.43;99050.60;1744016;81;21569;-60
2021/04/19 11:15:11;;;;;;;2.80;2.60;;;;;;;15.25;41.27;99052.30;1766804;80;22839;-60
2021/04/19 11:17:39;;;;;;;2.70;2.50;;;;;;;15.11;42.64;99051.22;1744013;80;21089;-59
2021/04/19 11:20:24;;;;;;;2.85;2.08;;;;;;;15.04;42.80;99043.72;1753392;80;20970;-59
2021/04/19 11:22:51;;;;;;;2.35;2.15;;;;;;;14.98;43.51;99043.20;1770712;80;21060;-61
2021/04/19 11:25:28;;;;;;;2.42;2.00;;;;;;;15.02;43.44;99041.74;1764505;80;21025;-60
2021/04/19 11:28:21;;;;;;;1.82;1.72;;;;;;;15.10;43.46;99046.38;1749190;81;22138;-59
2021/04/19 11:30:52;;;;;;;4.12;2.00;;;;;;;15.20;42.87;99047.30;1748005;81;20973;-60
2021/04/19 11:33:22;;;;;;;2.12;1.82;;;;;;;15.30;42.29;99041.78;1762221;80;21028;-61
2021/04/19 11:35:53;;;;;;;2.33;2.12;;;;;;;15.42;41.67;99037.42;1749680;82;21056;-60
2021/04/19 11:38:23;;;;;;;1.65;1.55;;;;;;;15.51;41.92;99031.86;1731942;82;21595;-61
2021/04/19 11:40:50;;;;;;;7.58;2.22;;;;;;;15.56;42.34;99033.39;1749957;81;21380;-60
2021/04/19 11:43:25;;;;;;;2.60;2.40;;;;;;;15.69;41.90;99031.48;1750578;81;20989;-60
2021/04/19 11:46:04;;;;;;;4.25;3.08;;;;;;;15.78;41.46;99036.88;1766907;80;21086;-60
2021/04/19 11:48:34;;;;;;;2.58;2.37;;;;;;;15.80;41.44;99036.69;1748690;81;21161;-59
2021/04/19 11:51:06;;;;;;;2.50;2.30;;;;;;;15.68;40.59;99039.20;1765973;80;21116;-60
2021/04/19 11:53:38;;;;;;;3.02;2.00;;;;;;;15.55;40.20;99039.77;1746125;81;22252;-59
2021/04/19 11:56:08;;;;;;;2.50;2.30;;;;;;;15.40;41.32;99038.16;1774833;80;21135;-61
2021/04/19 11:58:41;;;;;;;5.83;2.15;;;;;;;15.22;40.98;99039.35;1752381;80;20954;-58
2021/04/19 12:01:11;;;;;;;2.50;2.12;;;;;;;15.15;44.32;99040.37;1743900;82;21665;-60
2021/04/19 12:03:39;;;;;;;3.27;2.70;;;;;;;15.20;44.99;99038.72;1737118;81;21176;-60
2021/04/19 12:06:08;;;;;;;3.45;3.00;;;;;;;15.34;45.73;99034.15;1744540;82;21189;-59
2021/04/19 12:08:39;;;;;;;2.90;2.60;;;;;;;15.42;45.37;99028.55;1759765;80;21529;-60